createdAt,value
2019-05-17T00:02:07.784Z,95745.27
2019-05-17T00:04:37.478Z,95737.00
2019-05-17T00:07:07.034Z,95738.23
2019-05-17T00:09:39.489Z,95738.38
2019-05-17T00:12:11.570Z,95734.28
2019-05-17T00:14:40.715Z,95737.68
2019-05-17T00:17:10.135Z,95725.00
2019-05-17T00:19:41.252Z,95725.34
2019-05-17T00:22:13.267Z,95715.46
2019-05-17T00:24:43.429Z,95714.06
2019-05-17T00:27:14.477Z,95706.41
2019-05-17T00:29:46.551Z,95711.13
2019-05-17T00:32:18.986Z,95706.97
2019-05-17T00:34:52.625Z,95713.05
2019-05-17T00:37:22.156Z,95651.14
2019-05-17T00:39:56.508Z,95702.37
2019-05-17T00:42:30.284Z,95697.23
2019-05-17T00:44:59.460Z,95694.41
2019-05-17T00:47:28.570Z,95698.05
2019-05-17T00:49:57.634Z,95698.96
2019-05-17T00:52:27.212Z,95702.03
2019-05-17T00:54:59.708Z,95689.59
2019-05-17T00:57:30.017Z,95688.38
2019-05-17T00:59:59.073Z,95684.47
2019-05-17T01:02:29.508Z,95684.52
2019-05-17T01:05:02.764Z,95680.23
2019-05-17T01:07:37.736Z,95683.55
2019-05-17T01:10:11.750Z,95681.50
2019-05-17T01:12:40.883Z,95681.68
2019-05-17T01:15:12.654Z,95672.36
2019-05-17T01:17:43.467Z,95669.08
2019-05-17T01:20:13.244Z,95667.87
2019-05-17T01:22:42.688Z,95668.03
2019-05-17T01:25:17.165Z,95670.69
2019-05-17T01:27:47.502Z,95661.45
2019-05-17T01:30:18.780Z,95661.61
2019-05-17T01:32:49.728Z,95662.05
2019-05-17T01:35:18.790Z,95658.47
2019-05-17T01:37:47.814Z,95656.50
2019-05-17T01:40:17.696Z,95659.21
2019-05-17T01:42:46.918Z,95653.42
2019-05-17T01:45:16.863Z,95649.87
2019-05-17T01:47:50.706Z,95654.92
2019-05-17T01:50:20.981Z,95652.56
2019-05-17T01:52:50.106Z,95654.46
2019-05-17T01:55:26.579Z,95656.44
2019-05-17T01:57:59.668Z,95657.05
2019-05-17T02:00:32.046Z,95664.19
2019-05-17T02:03:07.079Z,95661.31
2019-05-17T02:05:37.191Z,95652.81
2019-05-17T02:08:08.712Z,95659.08
2019-05-17T02:10:37.906Z,95655.46
2019-05-17T02:13:07.109Z,95653.84
2019-05-17T02:15:38.664Z,95646.33
2019-05-17T02:18:07.713Z,95647.39
2019-05-17T02:20:37.436Z,95649.36
2019-05-17T02:23:10.239Z,95644.28
2019-05-17T02:25:40.430Z,95641.48
2019-05-17T02:28:09.539Z,95636.91
2019-05-17T02:30:38.685Z,95633.72
2019-05-17T02:33:08.135Z,95632.05
2019-05-17T02:35:37.166Z,95632.44
2019-05-17T02:38:06.268Z,95730.50
2019-05-17T02:40:35.356Z,95631.39
2019-05-17T02:43:04.657Z,95624.36
2019-05-17T02:45:35.155Z,95630.08
2019-05-17T02:48:13.190Z,95632.98
2019-05-17T02:50:47.978Z,95625.54
2019-05-17T02:53:17.759Z,95629.27
2019-05-17T02:55:48.030Z,95628.23
2019-05-17T02:58:23.048Z,95627.69
2019-05-17T03:00:53.267Z,95634.86
2019-05-17T03:03:26.225Z,95634.80
2019-05-17T03:06:02.653Z,95630.03
2019-05-17T03:08:34.439Z,95627.61
2019-05-17T03:11:08.553Z,95629.83
2019-05-17T03:13:43.213Z,95622.71
2019-05-17T03:16:14.546Z,95618.73
2019-05-17T03:18:43.841Z,95614.88
2019-05-17T03:21:13.916Z,95615.70
2019-05-17T03:23:45.401Z,95613.16
2019-05-17T03:26:14.488Z,95619.77
2019-05-17T03:28:43.809Z,95619.62
2019-05-17T03:31:16.932Z,95614.77
2019-05-17T03:33:55.594Z,95613.45
2019-05-17T03:36:26.093Z,95608.73
2019-05-17T03:38:53.401Z,95616.02
2019-05-17T03:41:27.921Z,95618.63
2019-05-17T03:43:54.993Z,95621.56
2019-05-17T03:46:24.172Z,95620.25
2019-05-17T03:48:54.496Z,95625.97
2019-05-17T03:51:42.559Z,95619.58
2019-05-17T03:54:14.385Z,95619.91
2019-05-17T03:56:43.437Z,95622.42
2019-05-17T03:59:13.128Z,95619.00
2019-05-17T04:01:43.591Z,95618.55
2019-05-17T04:04:16.276Z,95612.58
2019-05-17T04:06:45.454Z,95608.17
2019-05-17T04:09:14.539Z,95808.16
2019-05-17T04:11:43.962Z,95612.98
2019-05-17T04:14:13.961Z,95611.63
2019-05-17T04:16:45.659Z,95619.34
2019-05-17T04:19:14.730Z,95620.16
2019-05-17T04:21:44.302Z,95625.08
2019-05-17T04:24:16.618Z,95618.63
2019-05-17T04:26:52.288Z,95618.55
2019-05-17T04:29:25.595Z,95617.44
2019-05-17T04:31:57.047Z,95610.21
2019-05-17T04:34:26.172Z,95616.52
2019-05-17T04:36:56.228Z,95611.02
2019-05-17T04:39:25.282Z,95619.67
2019-05-17T04:41:55.123Z,95622.27
2019-05-17T04:44:25.573Z,95622.56
2019-05-17T04:46:58.368Z,94431.75
2019-05-17T04:49:33.712Z,95615.72
2019-05-17T04:52:13.757Z,95615.75
2019-05-17T04:54:45.464Z,95616.28
2019-05-17T04:57:14.558Z,95615.92
2019-05-17T04:59:43.753Z,95613.54
2019-05-17T05:02:13.478Z,95615.72
2019-05-17T05:04:45.940Z,95610.56
2019-05-17T05:07:15.640Z,95608.23
2019-05-17T05:09:54.915Z,95610.90
2019-05-17T05:12:24.100Z,95605.63
2019-05-17T05:14:53.173Z,95610.02
2019-05-17T05:17:22.330Z,95608.50
2019-05-17T05:19:53.112Z,95614.77
2019-05-17T05:22:33.268Z,95605.92
2019-05-17T05:25:04.201Z,95607.70
2019-05-17T05:27:33.515Z,95601.70
2019-05-17T05:30:04.451Z,95599.55
2019-05-17T05:32:33.574Z,95600.91
2019-05-17T05:35:03.220Z,95605.42
2019-05-17T05:37:33.154Z,95602.27
2019-05-17T05:40:05.814Z,95599.62
2019-05-17T05:42:35.641Z,95597.32
2019-05-17T05:45:08.296Z,95597.95
2019-05-17T05:47:41.413Z,95597.22
2019-05-17T05:50:12.811Z,95602.22
2019-05-17T05:52:42.734Z,95598.47
2019-05-17T05:55:12.734Z,95596.05
2019-05-17T05:57:43.953Z,95591.05
2019-05-17T06:00:21.971Z,95595.22
2019-05-17T06:02:52.311Z,95598.59
2019-05-17T06:05:25.673Z,95598.50
2019-05-17T06:07:55.801Z,95596.74
2019-05-17T06:10:25.005Z,95588.34
2019-05-17T06:12:58.974Z,95591.50
2019-05-17T06:15:32.367Z,95589.68
2019-05-17T06:18:06.246Z,95586.16
2019-05-17T06:20:36.730Z,95590.25
2019-05-17T06:23:05.861Z,95587.91
2019-05-17T06:25:35.386Z,95587.05
2019-05-17T06:28:11.417Z,95587.58
2019-05-17T06:30:43.916Z,95588.34
2019-05-17T06:33:27.155Z,95585.77
2019-05-17T06:35:47.322Z,95585.38
2019-05-17T06:38:16.376Z,95582.05
2019-05-17T06:40:45.806Z,95578.15
2019-05-17T06:43:15.392Z,95579.77
2019-05-17T06:45:44.494Z,95574.84
2019-05-17T06:48:18.493Z,95577.91
2019-05-17T06:50:47.574Z,95569.08
2019-05-17T06:53:16.720Z,95565.91
2019-05-17T06:55:47.444Z,95566.09
2019-05-17T06:58:22.230Z,95565.92
2019-05-17T07:01:00.512Z,95564.66
2019-05-17T07:03:31.895Z,95570.13
2019-05-17T07:06:02.642Z,95557.47
2019-05-17T07:08:36.944Z,95558.59
2019-05-17T07:11:06.101Z,95569.00
2019-05-17T07:13:36.098Z,95558.88
2019-05-17T07:16:05.189Z,95552.23
2019-05-17T07:18:34.888Z,95547.41
2019-05-17T07:21:12.384Z,95631.39
2019-05-17T07:23:41.447Z,95545.82
2019-05-17T07:26:12.044Z,95543.63
2019-05-17T07:28:41.471Z,95542.52
2019-05-17T07:31:10.549Z,95512.70
2019-05-17T07:33:41.555Z,95268.78
2019-05-17T07:36:10.655Z,95535.50
2019-05-17T07:38:39.858Z,95531.94
2019-05-17T07:41:12.712Z,95528.33
2019-05-17T07:43:44.818Z,95522.38
2019-05-17T07:46:13.916Z,95528.09
2019-05-17T07:48:49.740Z,95530.38
2019-05-17T07:51:22.837Z,95521.14
2019-05-17T07:53:59.751Z,95520.25
2019-05-17T07:56:31.226Z,95516.70
2019-05-17T07:59:00.584Z,95510.47
2019-05-17T08:01:32.867Z,95516.23
2019-05-17T08:04:02.443Z,95508.81
2019-05-17T08:06:34.477Z,95512.55
2019-05-17T08:09:04.728Z,95509.52
2019-05-17T08:11:36.304Z,95507.44
2019-05-17T08:14:10.391Z,95503.00
2019-05-17T08:16:43.477Z,95505.52
2019-05-17T08:19:14.630Z,95507.75
2019-05-17T08:21:44.105Z,95500.06
2019-05-17T08:24:19.529Z,95497.94
2019-05-17T08:26:54.968Z,95492.13
2019-05-17T08:29:24.039Z,95495.30
2019-05-17T08:31:54.617Z,95485.67
2019-05-17T08:34:23.638Z,95483.24
2019-05-17T08:36:53.406Z,95486.17
2019-05-17T08:39:22.731Z,95484.22
2019-05-17T08:41:51.822Z,95473.41
2019-05-17T08:44:22.415Z,95475.77
2019-05-17T08:46:51.550Z,95473.35
2019-05-17T08:49:20.858Z,95472.05
2019-05-17T08:51:50.671Z,95468.41
2019-05-17T08:54:21.242Z,95468.98
2019-05-17T08:56:54.212Z,95460.37
2019-05-17T08:59:29.515Z,95466.59
2019-05-17T09:02:00.127Z,95461.02
2019-05-17T09:04:32.009Z,95462.00
2019-05-17T09:07:05.888Z,95450.59
2019-05-17T09:09:39.492Z,95457.83
2019-05-17T09:12:11.023Z,95456.27
2019-05-17T09:14:40.283Z,95456.41
2019-05-17T09:17:10.320Z,95456.73
2019-05-17T09:19:46.583Z,95447.23
2019-05-17T09:22:15.703Z,95442.59
2019-05-17T09:24:49.989Z,95443.48
2019-05-17T09:27:20.362Z,95446.59
2019-05-17T09:29:53.293Z,95442.28
2019-05-17T09:32:25.939Z,95452.89
2019-05-17T09:34:56.642Z,95447.70
2019-05-17T09:37:25.783Z,95446.78
2019-05-17T09:39:55.174Z,95438.77
2019-05-17T09:42:25.885Z,95442.55
2019-05-17T09:44:54.974Z,95441.14
2019-05-17T09:47:31.608Z,95493.97
2019-05-17T09:50:01.407Z,95433.76
2019-05-17T09:52:31.839Z,95431.23
2019-05-17T09:55:01.004Z,95431.41
2019-05-17T09:57:30.215Z,95425.30
2019-05-17T10:00:00.179Z,95425.49
2019-05-17T10:02:33.628Z,95421.91
2019-05-17T10:05:03.487Z,95417.22
2019-05-17T10:07:33.230Z,95412.20
2019-05-17T10:10:05.734Z,95419.34
2019-05-17T10:12:40.352Z,95416.67
2019-05-17T10:15:10.132Z,95418.34
2019-05-17T10:17:44.672Z,95419.12
2019-05-17T10:20:15.032Z,95405.03
2019-05-17T10:22:46.974Z,95412.63
2019-05-17T10:25:19.965Z,95411.63
2019-05-17T10:27:47.014Z,95409.00
2019-05-17T10:30:20.744Z,95400.15
2019-05-17T10:32:50.820Z,95394.32
2019-05-17T10:35:20.460Z,95395.22
2019-05-17T10:37:50.695Z,95393.66
2019-05-17T10:40:23.034Z,95393.89
2019-05-17T10:42:52.138Z,95396.66
2019-05-17T10:45:21.649Z,95397.79
2019-05-17T10:47:51.281Z,95389.72
2019-05-17T10:50:23.862Z,95396.11
2019-05-17T10:52:52.908Z,95389.45
2019-05-17T10:55:30.187Z,95391.11
2019-05-17T10:58:01.058Z,95385.77
2019-05-17T11:00:31.814Z,95385.34
2019-05-17T11:03:01.626Z,95375.88
2019-05-17T11:05:36.621Z,95380.45
2019-05-17T11:08:10.648Z,95377.05
2019-05-17T11:10:39.524Z,95377.56
2019-05-17T11:13:10.177Z,95373.83
2019-05-17T11:15:39.669Z,95365.88
2019-05-17T11:18:09.028Z,95430.34
2019-05-17T11:20:38.254Z,95376.61
2019-05-17T11:23:08.896Z,95367.34
2019-05-17T11:25:44.642Z,95371.38
2019-05-17T11:28:13.452Z,95165.67
2019-05-17T11:30:42.590Z,95366.44
2019-05-17T11:33:13.182Z,95346.13
2019-05-17T11:35:44.078Z,95370.12
2019-05-17T11:38:13.510Z,95373.03
2019-05-17T11:40:42.810Z,95362.00
2019-05-17T11:43:13.710Z,95370.30
2019-05-17T11:45:45.422Z,95140.00
2019-05-17T11:48:15.572Z,95367.74
2019-05-17T11:50:49.094Z,95369.59
2019-05-17T11:53:24.185Z,95366.23
2019-05-17T11:55:57.540Z,95367.19
2019-05-17T11:58:27.494Z,95364.02
2019-05-17T12:00:59.812Z,95426.41
2019-05-17T12:03:29.515Z,95360.21
2019-05-17T12:05:58.598Z,95358.08
2019-05-17T12:08:27.898Z,95359.83
2019-05-17T12:11:06.541Z,95361.89
2019-05-17T12:13:38.447Z,95355.59
2019-05-17T12:16:09.661Z,95348.66
2019-05-17T12:18:41.586Z,95351.82
2019-05-17T12:21:15.157Z,95349.01
2019-05-17T12:23:45.344Z,95351.89
2019-05-17T12:26:15.399Z,95342.55
2019-05-17T12:28:44.803Z,95339.48
2019-05-17T12:31:16.753Z,95338.30
2019-05-17T12:33:48.703Z,95338.41
2019-05-17T12:36:18.247Z,95338.52
2019-05-17T12:38:48.117Z,95334.91
2019-05-17T12:41:18.912Z,95340.58
2019-05-17T12:43:51.122Z,95333.70
2019-05-17T12:46:20.429Z,95330.54
2019-05-17T12:48:49.541Z,95322.58
2019-05-17T12:51:18.624Z,95321.30
2019-05-17T12:53:47.735Z,95316.95
2019-05-17T12:56:16.775Z,95314.29
2019-05-17T12:58:45.871Z,95316.23
2019-05-17T13:01:16.152Z,95313.27
2019-05-17T13:03:50.819Z,95317.57
2019-05-17T13:06:23.644Z,95313.39
2019-05-17T13:09:00.711Z,95368.70
2019-05-17T13:11:40.493Z,95309.76
2019-05-17T13:14:13.953Z,95304.82
2019-05-17T13:16:48.926Z,95305.36
2019-05-17T13:19:18.674Z,95310.09
2019-05-17T13:21:54.277Z,95312.79
2019-05-17T13:24:23.902Z,95301.19
2019-05-17T13:26:52.992Z,95300.25
2019-05-17T13:29:22.031Z,95300.50
2019-05-17T13:31:52.606Z,95298.74
2019-05-17T13:34:23.940Z,95433.93
2019-05-17T13:36:54.678Z,95299.03
2019-05-17T13:39:26.854Z,95298.46
2019-05-17T13:41:55.910Z,95369.50
2019-05-17T13:44:24.976Z,95285.44
2019-05-17T13:46:54.042Z,95293.69
2019-05-17T13:49:25.524Z,95294.53
2019-05-17T13:51:55.222Z,95295.88
2019-05-17T13:54:24.536Z,95290.55
2019-05-17T13:56:54.273Z,95292.91
2019-05-17T13:59:27.583Z,95287.38
2019-05-17T14:01:58.517Z,94442.65
2019-05-17T14:04:27.566Z,95289.06
2019-05-17T14:06:56.658Z,95288.46
2019-05-17T14:09:25.739Z,95283.77
2019-05-17T14:11:58.064Z,95286.80
2019-05-17T14:14:33.742Z,95296.25
2019-05-17T14:17:04.414Z,95290.80
2019-05-17T14:19:33.476Z,95293.08
2019-05-17T14:22:19.906Z,95297.55
2019-05-17T14:24:49.104Z,95296.35
2019-05-17T14:27:24.208Z,95298.66
2019-05-17T14:29:54.573Z,95294.92
2019-05-17T14:32:25.154Z,95296.06
2019-05-17T14:34:54.505Z,95299.34
2019-05-17T14:37:28.003Z,95301.14
2019-05-17T14:39:57.366Z,95303.78
2019-05-17T14:42:30.496Z,95303.81
2019-05-17T14:45:01.769Z,95305.23
2019-05-17T14:47:30.846Z,95303.03
2019-05-17T14:50:02.158Z,95307.72
2019-05-17T14:52:32.217Z,95303.75
2019-05-17T14:55:02.408Z,95306.70
2019-05-17T14:57:37.569Z,95307.21
2019-05-17T15:00:09.652Z,95306.75
2019-05-17T15:02:46.367Z,95320.95
2019-05-17T15:05:15.406Z,95338.83
2019-05-17T15:07:46.013Z,95340.42
2019-05-17T15:10:15.132Z,95353.84
2019-05-17T15:12:44.414Z,95369.20
2019-05-17T15:15:14.031Z,95381.77
2019-05-17T15:17:46.068Z,95393.89
2019-05-17T15:20:15.379Z,95398.18
2019-05-17T15:22:44.700Z,95406.74
2019-05-17T15:25:14.451Z,95409.83
2019-05-17T15:27:43.777Z,95432.36
2019-05-17T15:30:14.689Z,95432.90
2019-05-17T15:32:43.783Z,95433.16
2019-05-17T15:35:13.051Z,95431.68
2019-05-17T15:37:42.857Z,95432.17
2019-05-17T15:40:15.965Z,95426.35
2019-05-17T15:42:45.065Z,95430.44
2019-05-17T15:45:16.382Z,95430.27
2019-05-17T15:47:45.999Z,95431.92
2019-05-17T15:50:15.168Z,95429.58
2019-05-17T15:52:44.242Z,95432.24
2019-05-17T15:55:17.811Z,95428.52
2019-05-17T15:57:49.306Z,95417.36
2019-05-17T16:00:20.369Z,95421.52
2019-05-17T16:02:51.681Z,95412.92
2019-05-17T16:05:24.757Z,95414.46
2019-05-17T16:07:53.498Z,95416.27
2019-05-17T16:10:22.699Z,95406.36
2019-05-17T16:13:02.506Z,94352.19
2019-05-17T16:15:22.777Z,95396.47
2019-05-17T16:17:51.835Z,95394.91
2019-05-17T16:20:20.930Z,95387.40
2019-05-17T16:22:50.201Z,95369.71
2019-05-17T16:25:20.898Z,95365.04
2019-05-17T16:27:50.045Z,95361.09
2019-05-17T16:30:20.713Z,95342.87
2019-05-17T16:32:53.579Z,95346.94
2019-05-17T16:35:22.681Z,95350.14
2019-05-17T16:37:51.776Z,95346.16
2019-05-17T16:40:24.375Z,95340.92
2019-05-17T16:42:53.453Z,95340.72
2019-05-17T16:45:22.524Z,95049.71
2019-05-17T16:47:51.578Z,95335.63
2019-05-17T16:50:21.666Z,95325.98
2019-05-17T16:53:03.676Z,95324.86
2019-05-17T16:55:26.127Z,95326.77
2019-05-17T16:57:55.684Z,95322.80
2019-05-17T17:00:34.286Z,95327.00
2019-05-17T17:03:05.288Z,95327.56
2019-05-17T17:05:37.793Z,95327.95
2019-05-17T17:08:07.077Z,95326.33
2019-05-17T17:10:36.159Z,95321.41
2019-05-17T17:13:10.138Z,95318.20
2019-05-17T17:15:39.306Z,95318.63
2019-05-17T17:18:08.370Z,95326.11
2019-05-17T17:20:39.238Z,95336.37
2019-05-17T17:23:08.689Z,95346.30
2019-05-17T17:25:37.788Z,95343.59
2019-05-17T17:28:08.288Z,95345.05
2019-05-17T17:30:37.876Z,95352.53
2019-05-17T17:33:06.946Z,95354.27
2019-05-17T17:35:39.414Z,95346.59
2019-05-17T17:38:10.566Z,95346.34
2019-05-17T17:40:39.658Z,95329.68
2019-05-17T17:43:12.036Z,95339.94
2019-05-17T17:45:46.410Z,95339.82
2019-05-17T17:48:15.919Z,95329.77
2019-05-17T17:50:46.741Z,95335.79
2019-05-17T17:53:17.642Z,95342.55
2019-05-17T17:55:46.723Z,95333.58
2019-05-17T17:58:18.377Z,95339.58
2019-05-17T18:00:49.064Z,95341.05
2019-05-17T18:03:18.487Z,95340.66
2019-05-17T18:05:50.390Z,95340.19
2019-05-17T18:08:19.580Z,95341.62
2019-05-17T18:10:48.641Z,95344.12
2019-05-17T18:13:17.867Z,95346.94
2019-05-17T18:15:50.479Z,95348.56
2019-05-17T18:18:23.837Z,95348.69
2019-05-17T18:20:55.427Z,95352.36
2019-05-17T18:23:24.668Z,95350.14
2019-05-17T18:25:56.978Z,95370.22
2019-05-17T18:28:31.531Z,95355.84
2019-05-17T18:31:02.170Z,95359.28
2019-05-17T18:33:31.272Z,95363.66
2019-05-17T18:36:00.360Z,95374.81
2019-05-17T18:38:30.806Z,95376.56
2019-05-17T18:41:04.132Z,95385.86
2019-05-17T18:43:40.257Z,95390.02
2019-05-17T18:46:12.475Z,95393.09
2019-05-17T18:48:42.804Z,95395.06
2019-05-17T18:51:16.457Z,95391.55
2019-05-17T18:53:48.702Z,95393.27
2019-05-17T18:56:19.562Z,95397.80
2019-05-17T18:58:56.668Z,95217.89
2019-05-17T19:01:27.445Z,95391.35
2019-05-17T19:03:58.017Z,95394.50
2019-05-17T19:06:27.401Z,95391.72
2019-05-17T19:08:58.042Z,95399.23
2019-05-17T19:11:27.240Z,95394.59
2019-05-17T19:13:59.126Z,95404.25
2019-05-17T19:16:28.202Z,95398.46
2019-05-17T19:19:02.333Z,95401.75
2019-05-17T19:21:31.412Z,95403.03
2019-05-17T19:24:00.703Z,95405.77
2019-05-17T19:26:29.795Z,95410.48
2019-05-17T19:29:00.019Z,95413.59
2019-05-17T19:31:31.669Z,95411.76
2019-05-17T19:34:02.504Z,95418.98
2019-05-17T19:36:31.629Z,95422.38
2019-05-17T19:39:00.840Z,95424.30
2019-05-17T19:41:30.204Z,95429.19
2019-05-17T19:44:02.293Z,95427.31
2019-05-17T19:46:35.809Z,95432.20
2019-05-17T19:49:15.902Z,95443.28
2019-05-17T19:51:48.096Z,95437.38
2019-05-17T19:54:17.242Z,95444.38
2019-05-17T19:56:46.350Z,95449.91
2019-05-17T19:59:15.386Z,95457.61
2019-05-17T20:01:44.448Z,95461.08
2019-05-17T20:04:13.522Z,95454.75
2019-05-17T20:06:42.596Z,95451.57
2019-05-17T20:09:11.637Z,95449.42
2019-05-17T20:11:44.829Z,95458.16
2019-05-17T20:14:13.137Z,95459.98
2019-05-17T20:16:42.188Z,95458.67
2019-05-17T20:19:14.720Z,95461.62
2019-05-17T20:21:43.885Z,95454.11
2019-05-17T20:24:13.267Z,95459.89
2019-05-17T20:26:44.147Z,95462.92
2019-05-17T20:29:14.602Z,95456.47
2019-05-17T20:31:46.856Z,95455.63
2019-05-17T20:34:18.712Z,95457.34
2019-05-17T20:36:47.801Z,95456.59
2019-05-17T20:39:19.397Z,95453.97
2019-05-17T20:41:48.412Z,95455.87
2019-05-17T20:44:17.569Z,95452.77
2019-05-17T20:46:46.599Z,95449.00
2019-05-17T20:51:43.602Z,95453.77
2019-05-17T20:54:12.643Z,95539.66
2019-05-17T20:56:41.771Z,95452.72
2019-05-17T20:59:10.828Z,95456.97
2019-05-17T21:01:39.920Z,95454.48
2019-05-17T21:04:08.975Z,95450.28
2019-05-17T21:06:38.041Z,95446.50
2019-05-17T21:09:13.083Z,95443.98
2019-05-17T21:11:42.498Z,95445.86
2019-05-17T21:14:14.154Z,95439.47
2019-05-17T21:16:43.630Z,95437.58
2019-05-17T21:19:18.718Z,95437.64
2019-05-17T21:21:47.760Z,95433.70
2019-05-17T21:24:16.847Z,95429.55
2019-05-17T21:26:47.696Z,95432.00
2019-05-17T21:29:19.422Z,95430.58
2019-05-17T21:31:51.621Z,95434.91
2019-05-17T21:34:20.725Z,95435.72
2019-05-17T21:36:49.774Z,95434.82
2019-05-17T21:39:18.881Z,95431.51
2019-05-17T21:41:49.621Z,95441.69
2019-05-17T21:44:18.656Z,95439.27
2019-05-17T21:47:04.254Z,95440.33
2019-05-17T21:49:28.396Z,95441.73
2019-05-17T21:51:57.451Z,95438.28
2019-05-17T21:54:29.634Z,95438.95
2019-05-17T21:57:00.635Z,95441.45
2019-05-17T21:59:30.038Z,95446.38
2019-05-17T22:01:59.803Z,95444.94
2019-05-17T22:04:30.630Z,95450.52
2019-05-17T22:06:59.875Z,95442.41
2019-05-17T22:09:28.966Z,95453.56
2019-05-17T22:12:03.199Z,95451.34
2019-05-17T22:14:32.363Z,95448.67
2019-05-17T22:17:01.520Z,95458.76
2019-05-17T22:19:41.645Z,95463.20
2019-05-17T22:22:13.705Z,95457.66
2019-05-17T22:24:42.884Z,95463.82
2019-05-17T22:27:11.960Z,95459.69
2019-05-17T22:29:41.049Z,95463.69
2019-05-17T22:32:10.302Z,95456.13
2019-05-17T22:34:40.546Z,95456.70
2019-05-17T22:37:17.338Z,95456.45
2019-05-17T22:39:51.193Z,95457.22
2019-05-17T22:42:20.526Z,95455.59
2019-05-17T22:44:49.755Z,95450.95
2019-05-17T22:47:19.956Z,95448.33
2019-05-17T22:50:00.450Z,95448.01
2019-05-17T22:52:29.518Z,95452.13
2019-05-17T22:55:01.737Z,95446.13
2019-05-17T22:57:34.262Z,95445.03
2019-05-17T23:00:07.692Z,95440.61
2019-05-17T23:02:39.713Z,95440.10
2019-05-17T23:05:10.881Z,95440.48
2019-05-17T23:07:39.952Z,95441.38
2019-05-17T23:10:09.035Z,95436.50
2019-05-17T23:12:38.165Z,95438.80
2019-05-17T23:15:12.164Z,95437.66
2019-05-17T23:17:41.216Z,95436.00
2019-05-17T23:20:10.369Z,95428.78
2019-05-17T23:22:39.398Z,95434.13
2019-05-17T23:25:08.458Z,95427.55
2019-05-17T23:27:37.653Z,95430.80
2019-05-17T23:30:08.536Z,95430.42
2019-05-17T23:32:37.964Z,95427.31
2019-05-17T23:35:10.026Z,95427.06
2019-05-17T23:37:45.120Z,95429.13
2019-05-17T23:40:18.696Z,95424.81
2019-05-17T23:42:48.122Z,95430.58
2019-05-17T23:45:21.104Z,95431.41
2019-05-17T23:47:52.422Z,95427.69
2019-05-17T23:50:24.291Z,95429.98
2019-05-17T23:52:53.337Z,95426.75
2019-05-17T23:55:28.063Z,95432.05
2019-05-17T23:57:57.190Z,95427.81
